sensor_id;sensor_type;location;lat;lon;timestamp;pressure;altitude;pressure_sealevel;temperature;humidity
8298;BME280;4187;42.778;23.242;2023-03-26T00:01:26;94787.53;;;10.33;100.00
8298;BME280;4187;42.778;23.242;2023-03-26T00:03:54;94783.75;;;10.36;100.00
8298;BME280;4187;42.778;23.242;2023-03-26T00:06:23;94760.75;;;10.20;100.00
8298;BME280;4187;42.778;23.242;2023-03-26T00:08:52;94773.94;;;10.20;100.00
8298;BME280;4187;42.778;23.242;2023-03-26T00:11:21;94769.97;;;10.16;100.00
8298;BME280;4187;42.778;23.242;2023-03-26T00:13:49;94769.28;;;10.14;100.00
8298;BME280;4187;42.778;23.242;2023-03-26T00:16:19;94769.59;;;10.11;100.00
8298;BME280;4187;42.778;23.242;2023-03-26T00:18:46;94771.16;;;10.04;100.00
8298;BME280;4187;42.778;23.242;2023-03-26T00:21:14;94761.41;;;9.96;100.00
8298;BME280;4187;42.778;23.242;2023-03-26T00:23:42;94770.56;;;9.92;100.00
8298;BME280;4187;42.778;23.242;2023-03-26T00:26:11;94745.41;;;9.72;100.00
8298;BME280;4187;42.778;23.242;2023-03-26T00:28:39;94762.94;;;9.63;100.00
8298;BME280;4187;42.778;23.242;2023-03-26T00:31:08;94768.38;;;9.62;100.00
8298;BME280;4187;42.778;23.242;2023-03-26T00:33:36;94783.84;;;9.65;100.00
8298;BME280;4187;42.778;23.242;2023-03-26T00:36:07;94780.03;;;9.59;100.00
8298;BME280;4187;42.778;23.242;2023-03-26T00:38:35;94761.50;;;9.34;100.00
8298;BME280;4187;42.778;23.242;2023-03-26T00:41:04;94780.78;;;9.34;100.00
8298;BME280;4187;42.778;23.242;2023-03-26T00:43:34;94771.22;;;9.33;100.00
8298;BME280;4187;42.778;23.242;2023-03-26T00:46:01;94785.03;;;9.18;100.00
8298;BME280;4187;42.778;23.242;2023-03-26T00:48:28;94782.06;;;9.03;100.00
8298;BME280;4187;42.778;23.242;2023-03-26T00:50:56;94786.81;;;8.99;100.00
8298;BME280;4187;42.778;23.242;2023-03-26T00:53:23;94781.09;;;8.86;100.00
8298;BME280;4187;42.778;23.242;2023-03-26T00:55:49;94783.81;;;8.94;100.00
8298;BME280;4187;42.778;23.242;2023-03-26T00:58:16;94774.25;;;8.93;100.00
8298;BME280;4187;42.778;23.242;2023-03-26T01:00:53;94795.03;;;9.14;100.00
8298;BME280;4187;42.778;23.242;2023-03-26T01:03:22;94796.13;;;9.21;100.00
8298;BME280;4187;42.778;23.242;2023-03-26T01:05:50;94801.88;;;9.25;100.00
8298;BME280;4187;42.778;23.242;2023-03-26T01:08:26;94809.38;;;9.29;100.00
8298;BME280;4187;42.778;23.242;2023-03-26T01:10:56;94802.97;;;9.32;100.00
8298;BME280;4187;42.778;23.242;2023-03-26T01:13:31;94800.84;;;9.35;100.00
8298;BME280;4187;42.778;23.242;2023-03-26T01:16:00;94812.09;;;9.37;100.00
8298;BME280;4187;42.778;23.242;2023-03-26T01:18:30;94812.75;;;9.39;100.00
8298;BME280;4187;42.778;23.242;2023-03-26T01:21:00;94808.75;;;9.35;100.00
8298;BME280;4187;42.778;23.242;2023-03-26T01:23:38;94813.50;;;9.32;100.00
8298;BME280;4187;42.778;23.242;2023-03-26T01:26:14;94819.16;;;9.37;100.00
8298;BME280;4187;42.778;23.242;2023-03-26T01:28:45;94808.88;;;9.43;100.00
8298;BME280;4187;42.778;23.242;2023-03-26T01:31:17;94811.72;;;9.50;100.00
8298;BME280;4187;42.778;23.242;2023-03-26T01:33:55;94805.41;;;9.43;100.00
8298;BME280;4187;42.778;23.242;2023-03-26T01:36:29;94813.88;;;9.54;100.00
8298;BME280;4187;42.778;23.242;2023-03-26T01:39:00;94824.22;;;9.48;100.00
8298;BME280;4187;42.778;23.242;2023-03-26T01:41:37;94823.38;;;9.47;100.00
8298;BME280;4187;42.778;23.242;2023-03-26T01:44:10;94804.25;;;9.45;100.00
8298;BME280;4187;42.778;23.242;2023-03-26T01:46:40;94823.28;;;9.57;100.00
8298;BME280;4187;42.778;23.242;2023-03-26T01:49:08;94822.41;;;9.48;100.00
8298;BME280;4187;42.778;23.242;2023-03-26T01:51:39;94777.78;;;9.29;100.00
8298;BME280;4187;42.778;23.242;2023-03-26T01:54:09;94818.47;;;9.52;100.00
8298;BME280;4187;42.778;23.242;2023-03-26T01:56:47;94819.06;;;9.46;100.00
8298;BME280;4187;42.778;23.242;2023-03-26T01:59:30;94817.13;;;9.48;100.00
8298;BME280;4187;42.778;23.242;2023-03-26T02:02:08;94814.13;;;9.43;100.00
8298;BME280;4187;42.778;23.242;2023-03-26T02:04:40;94813.72;;;9.38;100.00
8298;BME280;4187;42.778;23.242;2023-03-26T02:07:12;94816.13;;;9.32;100.00
8298;BME280;4187;42.778;23.242;2023-03-26T02:09:44;94823.41;;;9.20;100.00
8298;BME280;4187;42.778;23.242;2023-03-26T02:12:16;94827.31;;;9.16;100.00
8298;BME280;4187;42.778;23.242;2023-03-26T02:14:44;94823.31;;;9.12;100.00
8298;BME280;4187;42.778;23.242;2023-03-26T02:17:11;94822.66;;;9.10;100.00
8298;BME280;4187;42.778;23.242;2023-03-26T02:19:38;94816.53;;;9.10;100.00
8298;BME280;4187;42.778;23.242;2023-03-26T02:22:06;94813.53;;;9.05;100.00
8298;BME280;4187;42.778;23.242;2023-03-26T02:24:37;94816.75;;;8.98;100.00
8298;BME280;4187;42.778;23.242;2023-03-26T02:27:03;94817.19;;;8.94;100.00
8298;BME280;4187;42.778;23.242;2023-03-26T02:29:39;94810.41;;;8.91;100.00
8298;BME280;4187;42.778;23.242;2023-03-26T02:32:09;94811.06;;;8.76;100.00
8298;BME280;4187;42.778;23.242;2023-03-26T02:34:37;94812.00;;;8.75;100.00
8298;BME280;4187;42.778;23.242;2023-03-26T02:37:04;94812.03;;;8.65;100.00
8298;BME280;4187;42.778;23.242;2023-03-26T02:39:32;94830.88;;;8.70;100.00
8298;BME280;4187;42.778;23.242;2023-03-26T02:41:59;94826.34;;;8.53;100.00
8298;BME280;4187;42.778;23.242;2023-03-26T02:44:25;94835.63;;;8.48;100.00
8298;BME280;4187;42.778;23.242;2023-03-26T02:46:54;94837.03;;;8.42;100.00
8298;BME280;4187;42.778;23.242;2023-03-26T02:49:22;94824.72;;;8.43;100.00
8298;BME280;4187;42.778;23.242;2023-03-26T02:51:48;94854.28;;;8.64;100.00
8298;BME280;4187;42.778;23.242;2023-03-26T02:54:15;94857.28;;;8.69;100.00
8298;BME280;4187;42.778;23.242;2023-03-26T02:56:42;94850.53;;;8.66;100.00
8298;BME280;4187;42.778;23.242;2023-03-26T02:59:09;94849.56;;;8.67;100.00
8298;BME280;4187;42.778;23.242;2023-03-26T03:01:36;94853.56;;;8.71;100.00
8298;BME280;4187;42.778;23.242;2023-03-26T03:04:08;94855.78;;;8.66;100.00
8298;BME280;4187;42.778;23.242;2023-03-26T03:06:35;94854.28;;;8.64;100.00
8298;BME280;4187;42.778;23.242;2023-03-26T03:09:04;94860.50;;;8.63;100.00
8298;BME280;4187;42.778;23.242;2023-03-26T03:11:31;94856.91;;;8.64;100.00
8298;BME280;4187;42.778;23.242;2023-03-26T03:13:58;94875.03;;;8.67;100.00
8298;BME280;4187;42.778;23.242;2023-03-26T03:16:25;94862.84;;;8.66;100.00
8298;BME280;4187;42.778;23.242;2023-03-26T03:18:52;94872.00;;;8.62;100.00
8298;BME280;4187;42.778;23.242;2023-03-26T03:21:22;94869.66;;;8.59;100.00
8298;BME280;4187;42.778;23.242;2023-03-26T03:23:49;94880.47;;;8.56;100.00
8298;BME280;4187;42.778;23.242;2023-03-26T03:26:18;94884.22;;;8.53;100.00
8298;BME280;4187;42.778;23.242;2023-03-26T03:28:46;94873.13;;;8.59;100.00
8298;BME280;4187;42.778;23.242;2023-03-26T03:31:13;94865.69;;;8.45;100.00
8298;BME280;4187;42.778;23.242;2023-03-26T03:33:40;94866.63;;;8.54;100.00
8298;BME280;4187;42.778;23.242;2023-03-26T03:36:08;94876.31;;;8.43;100.00
8298;BME280;4187;42.778;23.242;2023-03-26T03:38:37;94884.38;;;8.42;100.00
8298;BME280;4187;42.778;23.242;2023-03-26T03:41:04;94865.53;;;8.47;100.00
8298;BME280;4187;42.778;23.242;2023-03-26T03:43:31;94865.91;;;8.52;100.00
8298;BME280;4187;42.778;23.242;2023-03-26T03:45:59;94866.25;;;8.49;100.00
8298;BME280;4187;42.778;23.242;2023-03-26T03:48:26;94873.53;;;8.55;100.00
8298;BME280;4187;42.778;23.242;2023-03-26T03:50:53;94878.09;;;8.53;100.00
8298;BME280;4187;42.778;23.242;2023-03-26T03:53:21;94869.28;;;8.44;100.00
8298;BME280;4187;42.778;23.242;2023-03-26T03:55:52;94879.06;;;8.52;100.00
8298;BME280;4187;42.778;23.242;2023-03-26T03:58:19;94865.25;;;8.50;100.00
8298;BME280;4187;42.778;23.242;2023-03-26T04:00:47;94866.25;;;8.49;100.00
8298;BME280;4187;42.778;23.242;2023-03-26T04:03:15;94878.50;;;8.58;100.00
8298;BME280;4187;42.778;23.242;2023-03-26T04:05:42;94866.19;;;8.58;100.00
8298;BME280;4187;42.778;23.242;2023-03-26T04:08:14;94874.63;;;8.62;100.00
8298;BME280;4187;42.778;23.242;2023-03-26T04:10:42;94884.44;;;8.69;100.00
8298;BME280;4187;42.778;23.242;2023-03-26T04:13:11;94893.69;;;8.73;100.00
8298;BME280;4187;42.778;23.242;2023-03-26T04:15:38;94897.28;;;8.82;100.00
8298;BME280;4187;42.778;23.242;2023-03-26T04:18:05;94882.50;;;8.71;100.00
8298;BME280;4187;42.778;23.242;2023-03-26T04:20:35;94909.31;;;8.84;100.00
8298;BME280;4187;42.778;23.242;2023-03-26T04:23:03;94916.25;;;8.85;100.00
8298;BME280;4187;42.778;23.242;2023-03-26T04:25:30;94928.56;;;8.85;100.00
8298;BME280;4187;42.778;23.242;2023-03-26T04:27:59;94925.09;;;8.84;100.00
8298;BME280;4187;42.778;23.242;2023-03-26T04:30:33;94941.59;;;8.86;100.00
8298;BME280;4187;42.778;23.242;2023-03-26T04:33:01;94945.84;;;8.87;100.00
8298;BME280;4187;42.778;23.242;2023-03-26T04:35:31;94943.63;;;8.92;100.00
8298;BME280;4187;42.778;23.242;2023-03-26T04:38:00;94960.66;;;8.98;100.00
8298;BME280;4187;42.778;23.242;2023-03-26T04:40:31;94958.56;;;9.01;100.00
8298;BME280;4187;42.778;23.242;2023-03-26T04:42:59;94953.31;;;9.01;100.00
8298;BME280;4187;42.778;23.242;2023-03-26T04:45:27;94957.16;;;9.07;100.00
8298;BME280;4187;42.778;23.242;2023-03-26T04:47:57;94963.50;;;9.24;100.00
8298;BME280;4187;42.778;23.242;2023-03-26T04:50:25;94957.84;;;9.19;100.00
8298;BME280;4187;42.778;23.242;2023-03-26T04:52:54;94975.09;;;9.31;100.00
8298;BME280;4187;42.778;23.242;2023-03-26T04:55:24;94971.63;;;9.30;100.00
8298;BME280;4187;42.778;23.242;2023-03-26T04:57:55;94973.00;;;9.34;100.00
8298;BME280;4187;42.778;23.242;2023-03-26T05:00:24;94975.47;;;9.36;100.00
8298;BME280;4187;42.778;23.242;2023-03-26T05:02:52;94973.13;;;9.33;100.00
8298;BME280;4187;42.778;23.242;2023-03-26T05:05:24;94972.91;;;9.26;100.00
8298;BME280;4187;42.778;23.242;2023-03-26T05:07:51;94966.69;;;9.18;100.00
8298;BME280;4187;42.778;23.242;2023-03-26T05:10:18;94978.16;;;9.26;100.00
8298;BME280;4187;42.778;23.242;2023-03-26T05:12:46;94977.44;;;9.34;100.00
8298;BME280;4187;42.778;23.242;2023-03-26T05:15:14;94985.72;;;9.39;100.00
8298;BME280;4187;42.778;23.242;2023-03-26T05:17:41;94988.91;;;9.42;100.00
8298;BME280;4187;42.778;23.242;2023-03-26T05:20:18;94991.94;;;9.47;100.00
8298;BME280;4187;42.778;23.242;2023-03-26T05:22:48;95005.50;;;9.52;100.00
8298;BME280;4187;42.778;23.242;2023-03-26T05:25:15;95015.41;;;9.68;100.00
8298;BME280;4187;42.778;23.242;2023-03-26T05:27:42;95014.09;;;9.82;100.00
8298;BME280;4187;42.778;23.242;2023-03-26T05:30:12;95011.94;;;9.95;100.00
8298;BME280;4187;42.778;23.242;2023-03-26T05:32:39;95024.31;;;10.12;100.00
8298;BME280;4187;42.778;23.242;2023-03-26T05:35:07;95020.16;;;10.19;100.00
8298;BME280;4187;42.778;23.242;2023-03-26T05:37:34;95025.22;;;10.30;100.00
8298;BME280;4187;42.778;23.242;2023-03-26T05:40:04;95021.84;;;10.38;100.00
8298;BME280;4187;42.778;23.242;2023-03-26T05:42:36;95018.75;;;10.42;100.00
8298;BME280;4187;42.778;23.242;2023-03-26T05:45:04;95018.53;;;10.53;100.00
8298;BME280;4187;42.778;23.242;2023-03-26T05:47:31;95020.09;;;10.64;100.00
8298;BME280;4187;42.778;23.242;2023-03-26T05:49:58;95015.94;;;10.79;100.00
8298;BME280;4187;42.778;23.242;2023-03-26T05:52:25;95020.47;;;10.87;100.00
8298;BME280;4187;42.778;23.242;2023-03-26T05:54:52;95014.19;;;10.88;100.00
8298;BME280;4187;42.778;23.242;2023-03-26T05:57:21;95016.13;;;11.03;100.00
8298;BME280;4187;42.778;23.242;2023-03-26T05:59:48;95012.47;;;11.22;100.00
8298;BME280;4187;42.778;23.242;2023-03-26T06:02:15;95018.28;;;11.25;100.00
8298;BME280;4187;42.778;23.242;2023-03-26T06:04:42;95023.28;;;11.36;100.00
8298;BME280;4187;42.778;23.242;2023-03-26T06:07:10;95021.31;;;11.38;100.00
8298;BME280;4187;42.778;23.242;2023-03-26T06:09:37;95029.00;;;11.50;100.00
8298;BME280;4187;42.778;23.242;2023-03-26T06:12:05;95036.47;;;11.54;100.00
8298;BME280;4187;42.778;23.242;2023-03-26T06:14:34;95020.97;;;11.59;100.00
8298;BME280;4187;42.778;23.242;2023-03-26T06:17:01;95020.38;;;11.73;100.00
8298;BME280;4187;42.778;23.242;2023-03-26T06:19:28;95010.56;;;11.66;100.00
8298;BME280;4187;42.778;23.242;2023-03-26T06:21:55;95028.06;;;11.92;100.00
8298;BME280;4187;42.778;23.242;2023-03-26T06:24:21;95018.94;;;12.21;100.00
8298;BME280;4187;42.778;23.242;2023-03-26T06:26:48;95027.47;;;12.73;100.00
8298;BME280;4187;42.778;23.242;2023-03-26T06:29:15;95006.44;;;13.03;100.00
8298;BME280;4187;42.778;23.242;2023-03-26T06:31:43;95027.47;;;13.61;100.00
8298;BME280;4187;42.778;23.242;2023-03-26T06:34:10;95021.41;;;13.92;100.00
8298;BME280;4187;42.778;23.242;2023-03-26T06:36:37;95028.31;;;14.01;100.00
8298;BME280;4187;42.778;23.242;2023-03-26T06:39:04;95029.38;;;13.92;100.00
8298;BME280;4187;42.778;23.242;2023-03-26T06:41:32;95025.38;;;13.88;99.84
8298;BME280;4187;42.778;23.242;2023-03-26T06:43:58;95024.81;;;13.61;98.66
8298;BME280;4187;42.778;23.242;2023-03-26T06:46:25;95040.75;;;13.37;98.08
8298;BME280;4187;42.778;23.242;2023-03-26T06:48:53;95048.53;;;13.31;97.24
8298;BME280;4187;42.778;23.242;2023-03-26T06:51:20;95036.78;;;13.09;97.72
8298;BME280;4187;42.778;23.242;2023-03-26T06:53:47;95041.94;;;13.10;98.78
8298;BME280;4187;42.778;23.242;2023-03-26T06:56:14;95048.38;;;13.24;99.96
8298;BME280;4187;42.778;23.242;2023-03-26T06:58:41;95041.25;;;13.33;98.94
8298;BME280;4187;42.778;23.242;2023-03-26T07:01:07;95053.84;;;13.31;94.16
8298;BME280;4187;42.778;23.242;2023-03-26T07:03:34;95047.69;;;13.38;93.71
8298;BME280;4187;42.778;23.242;2023-03-26T07:06:03;95048.50;;;13.47;92.40
8298;BME280;4187;42.778;23.242;2023-03-26T07:08:30;95033.56;;;13.78;100.00
8298;BME280;4187;42.778;23.242;2023-03-26T07:10:57;95044.50;;;14.14;92.23
8298;BME280;4187;42.778;23.242;2023-03-26T07:13:23;95045.31;;;14.22;89.56
8298;BME280;4187;42.778;23.242;2023-03-26T07:15:50;95040.69;;;14.32;90.72
8298;BME280;4187;42.778;23.242;2023-03-26T07:18:17;95038.81;;;14.33;88.83
8298;BME280;4187;42.778;23.242;2023-03-26T07:20:44;95043.38;;;14.16;90.43
8298;BME280;4187;42.778;23.242;2023-03-26T07:23:13;95028.78;;;14.12;90.08
8298;BME280;4187;42.778;23.242;2023-03-26T07:25:46;95036.66;;;14.28;89.63
8298;BME280;4187;42.778;23.242;2023-03-26T07:28:21;95035.06;;;14.11;88.98
8298;BME280;4187;42.778;23.242;2023-03-26T07:30:58;95023.69;;;14.03;91.13
8298;BME280;4187;42.778;23.242;2023-03-26T07:33:30;95035.44;;;14.08;90.75
8298;BME280;4187;42.778;23.242;2023-03-26T07:36:07;95028.53;;;13.91;85.34
8298;BME280;4187;42.778;23.242;2023-03-26T07:38:52;95031.44;;;13.49;88.00
8298;BME280;4187;42.778;23.242;2023-03-26T07:41:29;95032.94;;;13.52;92.54
8298;BME280;4187;42.778;23.242;2023-03-26T07:44:11;95029.75;;;13.72;89.24
8298;BME280;4187;42.778;23.242;2023-03-26T07:46:44;95032.50;;;13.87;90.31
8298;BME280;4187;42.778;23.242;2023-03-26T07:49:13;95033.19;;;13.89;90.95
8298;BME280;4187;42.778;23.242;2023-03-26T07:51:42;95018.44;;;13.87;100.00
8298;BME280;4187;42.778;23.242;2023-03-26T07:54:30;95029.97;;;14.02;89.68
8298;BME280;4187;42.778;23.242;2023-03-26T07:56:58;95019.53;;;14.08;88.29
8298;BME280;4187;42.778;23.242;2023-03-26T07:59:33;95033.38;;;14.26;87.82
8298;BME280;4187;42.778;23.242;2023-03-26T08:02:26;95034.44;;;14.48;85.25
8298;BME280;4187;42.778;23.242;2023-03-26T08:05:06;95023.19;;;14.69;86.16
8298;BME280;4187;42.778;23.242;2023-03-26T08:07:52;95020.25;;;15.09;86.41
8298;BME280;4187;42.778;23.242;2023-03-26T08:10:26;95025.31;;;15.19;80.78
8298;BME280;4187;42.778;23.242;2023-03-26T08:13:04;95019.38;;;15.31;81.27
8298;BME280;4187;42.778;23.242;2023-03-26T08:15:38;95025.06;;;15.51;79.58
8298;BME280;4187;42.778;23.242;2023-03-26T08:18:19;95035.19;;;15.70;78.48
8298;BME280;4187;42.778;23.242;2023-03-26T08:20:55;95022.31;;;15.74;76.62
8298;BME280;4187;42.778;23.242;2023-03-26T08:23:28;95023.72;;;15.99;77.02
8298;BME280;4187;42.778;23.242;2023-03-26T08:26:04;94994.06;;;15.87;74.89
8298;BME280;4187;42.778;23.242;2023-03-26T08:28:44;95020.97;;;16.07;74.20
8298;BME280;4187;42.778;23.242;2023-03-26T08:31:15;95019.41;;;16.12;73.15
8298;BME280;4187;42.778;23.242;2023-03-26T08:33:43;95030.97;;;16.05;71.38
8298;BME280;4187;42.778;23.242;2023-03-26T08:36:10;95028.47;;;16.18;70.42
8298;BME280;4187;42.778;23.242;2023-03-26T08:38:37;95027.44;;;16.34;68.28
8298;BME280;4187;42.778;23.242;2023-03-26T08:44:50;94999.88;;;16.41;63.76
8298;BME280;4187;42.778;23.242;2023-03-26T08:54:14;95013.56;;;16.67;66.92
8298;BME280;4187;42.778;23.242;2023-03-26T08:56:53;95003.03;;;16.81;79.63
8298;BME280;4187;42.778;23.242;2023-03-26T08:59:50;95014.31;;;17.25;88.06
8298;BME280;4187;42.778;23.242;2023-03-26T09:02:46;95013.03;;;17.42;68.20
8298;BME280;4187;42.778;23.242;2023-03-26T09:05:42;95023.59;;;17.29;63.23
8298;BME280;4187;42.778;23.242;2023-03-26T09:11:35;94999.78;;;16.64;68.14
8298;BME280;4187;42.778;23.242;2023-03-26T09:14:29;94999.91;;;16.98;66.25
8298;BME280;4187;42.778;23.242;2023-03-26T09:17:29;94995.72;;;17.31;61.98
8298;BME280;4187;42.778;23.242;2023-03-26T09:20:38;94990.84;;;17.42;59.98
8298;BME280;4187;42.778;23.242;2023-03-26T09:23:40;94984.69;;;17.41;63.75
8298;BME280;4187;42.778;23.242;2023-03-26T09:26:23;94970.16;;;17.71;64.57
8298;BME280;4187;42.778;23.242;2023-03-26T09:29:20;94966.03;;;17.62;62.98
8298;BME280;4187;42.778;23.242;2023-03-26T09:35:02;94970.06;;;17.92;61.25
8298;BME280;4187;42.778;23.242;2023-03-26T09:37:49;94967.97;;;18.16;62.55
8298;BME280;4187;42.778;23.242;2023-03-26T09:40:22;94969.31;;;18.46;58.46
8298;BME280;4187;42.778;23.242;2023-03-26T09:42:54;94974.50;;;18.54;59.72
8298;BME280;4187;42.778;23.242;2023-03-26T09:45:40;94970.06;;;18.81;57.93
8298;BME280;4187;42.778;23.242;2023-03-26T09:48:26;94976.44;;;18.86;56.59
8298;BME280;4187;42.778;23.242;2023-03-26T09:51:20;94961.66;;;18.97;57.30
8298;BME280;4187;42.778;23.242;2023-03-26T09:54:09;94954.84;;;19.01;56.74
8298;BME280;4187;42.778;23.242;2023-03-26T09:56:44;94942.31;;;18.95;54.31
8298;BME280;4187;42.778;23.242;2023-03-26T10:02:44;94945.69;;;18.49;54.72
8298;BME280;4187;42.778;23.242;2023-03-26T10:05:39;94928.41;;;17.91;57.47
8298;BME280;4187;42.778;23.242;2023-03-26T10:08:35;94934.97;;;17.96;59.99
8298;BME280;4187;42.778;23.242;2023-03-26T10:11:16;94935.91;;;18.16;56.08
8298;BME280;4187;42.778;23.242;2023-03-26T10:13:53;94931.44;;;18.29;58.04
8298;BME280;4187;42.778;23.242;2023-03-26T10:16:26;94927.16;;;18.41;56.54
8298;BME280;4187;42.778;23.242;2023-03-26T10:19:06;94923.91;;;18.46;52.09
8298;BME280;4187;42.778;23.242;2023-03-26T10:21:45;94919.94;;;18.29;51.98
8298;BME280;4187;42.778;23.242;2023-03-26T10:24:32;94914.72;;;18.62;53.65
8298;BME280;4187;42.778;23.242;2023-03-26T10:27:16;94913.13;;;19.00;53.52
8298;BME280;4187;42.778;23.242;2023-03-26T10:32:58;94903.63;;;19.24;49.28
8298;BME280;4187;42.778;23.242;2023-03-26T10:35:38;94878.53;;;19.05;51.63
8298;BME280;4187;42.778;23.242;2023-03-26T10:38:17;94886.38;;;19.46;52.08
8298;BME280;4187;42.778;23.242;2023-03-26T10:40:57;94898.81;;;19.85;48.26
8298;BME280;4187;42.778;23.242;2023-03-26T10:43:47;94884.44;;;19.73;44.50
8298;BME280;4187;42.778;23.242;2023-03-26T10:46:35;94879.38;;;19.38;46.04
8298;BME280;4187;42.778;23.242;2023-03-26T10:49:27;94883.88;;;19.44;48.21
8298;BME280;4187;42.778;23.242;2023-03-26T10:52:01;94879.72;;;19.61;47.94
8298;BME280;4187;42.778;23.242;2023-03-26T10:54:37;94870.88;;;19.61;45.62
8298;BME280;4187;42.778;23.242;2023-03-26T10:57:13;94876.78;;;19.83;48.40
8298;BME280;4187;42.778;23.242;2023-03-26T10:59:43;94879.41;;;19.96;46.73
8298;BME280;4187;42.778;23.242;2023-03-26T11:02:28;94868.63;;;20.09;45.72
8298;BME280;4187;42.778;23.242;2023-03-26T11:05:05;94868.94;;;19.88;43.59
8298;BME280;4187;42.778;23.242;2023-03-26T11:07:50;94877.75;;;20.01;45.98
8298;BME280;4187;42.778;23.242;2023-03-26T11:10:24;94874.75;;;19.78;44.22
8298;BME280;4187;42.778;23.242;2023-03-26T11:13:00;94856.47;;;19.36;45.61
8298;BME280;4187;42.778;23.242;2023-03-26T11:15:36;94856.66;;;19.60;44.53
8298;BME280;4187;42.778;23.242;2023-03-26T11:18:12;94844.28;;;19.66;42.82
8298;BME280;4187;42.778;23.242;2023-03-26T11:20:44;94850.56;;;19.98;43.47
8298;BME280;4187;42.778;23.242;2023-03-26T11:23:23;94845.06;;;20.31;44.32
8298;BME280;4187;42.778;23.242;2023-03-26T11:26:03;94841.09;;;20.40;42.43
8298;BME280;4187;42.778;23.242;2023-03-26T11:28:42;94843.16;;;20.69;41.47
8298;BME280;4187;42.778;23.242;2023-03-26T11:31:18;94837.44;;;20.65;38.68
8298;BME280;4187;42.778;23.242;2023-03-26T11:33:54;94833.09;;;20.64;40.09
8298;BME280;4187;42.778;23.242;2023-03-26T11:36:25;94835.97;;;20.69;39.37
8298;BME280;4187;42.778;23.242;2023-03-26T11:38:58;94823.28;;;20.83;37.62
8298;BME280;4187;42.778;23.242;2023-03-26T11:41:28;94820.19;;;21.04;38.38
8298;BME280;4187;42.778;23.242;2023-03-26T11:44:02;94816.16;;;21.20;37.02
8298;BME280;4187;42.778;23.242;2023-03-26T11:46:30;94814.69;;;21.24;36.42
8298;BME280;4187;42.778;23.242;2023-03-26T11:49:02;94808.78;;;21.33;34.94
8298;BME280;4187;42.778;23.242;2023-03-26T11:51:33;94806.41;;;21.25;37.52
8298;BME280;4187;42.778;23.242;2023-03-26T11:54:00;94792.66;;;20.66;37.60
8298;BME280;4187;42.778;23.242;2023-03-26T11:56:31;94787.72;;;20.00;35.72
8298;BME280;4187;42.778;23.242;2023-03-26T11:59:02;94780.09;;;19.59;38.54
8298;BME280;4187;42.778;23.242;2023-03-26T12:01:41;94773.94;;;19.90;39.19
8298;BME280;4187;42.778;23.242;2023-03-26T12:04:10;94782.41;;;20.32;37.23
8298;BME280;4187;42.778;23.242;2023-03-26T12:06:49;94768.38;;;20.61;36.23
8298;BME280;4187;42.778;23.242;2023-03-26T12:09:17;94781.63;;;20.80;34.96
8298;BME280;4187;42.778;23.242;2023-03-26T12:11:46;94776.41;;;20.85;36.31
8298;BME280;4187;42.778;23.242;2023-03-26T12:14:19;94756.81;;;20.85;34.03
8298;BME280;4187;42.778;23.242;2023-03-26T12:17:00;94758.28;;;21.06;34.62
8298;BME280;4187;42.778;23.242;2023-03-26T12:19:34;94775.59;;;21.28;35.43
8298;BME280;4187;42.778;23.242;2023-03-26T12:22:03;94763.41;;;21.32;33.08
8298;BME280;4187;42.778;23.242;2023-03-26T12:24:32;94758.63;;;21.34;32.80
8298;BME280;4187;42.778;23.242;2023-03-26T12:27:05;94766.28;;;21.30;32.67
8298;BME280;4187;42.778;23.242;2023-03-26T12:29:50;94747.28;;;21.32;32.11
8298;BME280;4187;42.778;23.242;2023-03-26T12:32:30;94741.44;;;21.17;30.82
8298;BME280;4187;42.778;23.242;2023-03-26T12:35:03;94728.56;;;21.25;31.57
8298;BME280;4187;42.778;23.242;2023-03-26T12:37:33;94736.47;;;21.20;32.65
8298;BME280;4187;42.778;23.242;2023-03-26T12:40:07;94721.44;;;21.37;32.36
8298;BME280;4187;42.778;23.242;2023-03-26T12:42:39;94726.69;;;21.44;31.93
8298;BME280;4187;42.778;23.242;2023-03-26T12:45:12;94723.28;;;21.19;32.37
8298;BME280;4187;42.778;23.242;2023-03-26T12:47:40;94720.97;;;21.22;31.98
8298;BME280;4187;42.778;23.242;2023-03-26T12:50:11;94719.19;;;21.16;32.04
8298;BME280;4187;42.778;23.242;2023-03-26T12:52:52;94714.84;;;21.15;30.68
8298;BME280;4187;42.778;23.242;2023-03-26T12:55:37;94701.69;;;20.89;30.17
8298;BME280;4187;42.778;23.242;2023-03-26T13:01:05;94707.38;;;20.99;27.92
8298;BME280;4187;42.778;23.242;2023-03-26T13:03:57;94705.66;;;21.05;28.65
8298;BME280;4187;42.778;23.242;2023-03-26T13:06:35;94716.38;;;21.11;29.07
8298;BME280;4187;42.778;23.242;2023-03-26T13:12:30;94698.38;;;20.69;30.57
8298;BME280;4187;42.778;23.242;2023-03-26T13:15:19;94700.50;;;20.60;30.05
8298;BME280;4187;42.778;23.242;2023-03-26T13:17:57;94702.91;;;20.68;30.64
8298;BME280;4187;42.778;23.242;2023-03-26T13:20:38;94693.84;;;20.87;31.10
8298;BME280;4187;42.778;23.242;2023-03-26T13:23:14;94701.41;;;20.97;29.96
8298;BME280;4187;42.778;23.242;2023-03-26T13:25:47;94702.00;;;20.81;28.80
8298;BME280;4187;42.778;23.242;2023-03-26T13:28:26;94702.59;;;20.83;29.07
8298;BME280;4187;42.778;23.242;2023-03-26T13:31:03;94686.91;;;20.62;28.61
8298;BME280;4187;42.778;23.242;2023-03-26T13:33:43;94697.09;;;20.53;27.73
8298;BME280;4187;42.778;23.242;2023-03-26T13:36:15;94683.91;;;20.52;28.73
8298;BME280;4187;42.778;23.242;2023-03-26T13:38:53;94687.47;;;20.46;28.43
8298;BME280;4187;42.778;23.242;2023-03-26T13:41:31;94690.31;;;20.51;29.67
8298;BME280;4187;42.778;23.242;2023-03-26T13:44:16;94690.03;;;20.59;27.82
8298;BME280;4187;42.778;23.242;2023-03-26T13:46:50;94694.13;;;20.61;28.73
8298;BME280;4187;42.778;23.242;2023-03-26T13:49:29;94697.09;;;20.53;28.60
8298;BME280;4187;42.778;23.242;2023-03-26T13:52:05;94685.22;;;20.43;26.25
8298;BME280;4187;42.778;23.242;2023-03-26T13:54:37;94694.38;;;20.35;26.00
8298;BME280;4187;42.778;23.242;2023-03-26T13:57:08;94688.69;;;20.18;28.16
8298;BME280;4187;42.778;23.242;2023-03-26T13:59:40;94684.78;;;20.14;28.66
8298;BME280;4187;42.778;23.242;2023-03-26T14:02:14;94682.50;;;20.24;28.60
8298;BME280;4187;42.778;23.242;2023-03-26T14:04:47;94684.28;;;20.31;27.24
8298;BME280;4187;42.778;23.242;2023-03-26T14:07:18;94666.69;;;20.10;27.52
8298;BME280;4187;42.778;23.242;2023-03-26T14:09:51;94675.84;;;20.02;29.72